createdAt,value
2019-05-17T00:02:22.567Z,22.80
2019-05-17T00:04:52.123Z,23.60
2019-05-17T00:07:22.505Z,23.23
2019-05-17T00:09:52.300Z,23.63
2019-05-17T00:12:23.746Z,23.17
2019-05-17T00:14:53.396Z,23.17
2019-05-17T00:17:23.314Z,23.77
2019-05-17T00:19:53.076Z,23.33
2019-05-17T00:22:22.996Z,22.97
2019-05-17T00:24:52.669Z,23.30
2019-05-17T00:27:23.295Z,21.90
2019-05-17T00:29:53.128Z,24.00
2019-05-17T00:32:23.013Z,22.40
2019-05-17T00:34:52.679Z,22.00
2019-05-17T00:37:23.528Z,23.40
2019-05-17T00:39:53.921Z,23.43
2019-05-17T00:42:26.437Z,23.00
2019-05-17T00:44:57.288Z,22.90
2019-05-17T00:47:27.388Z,23.10
2019-05-17T00:49:57.225Z,21.63
2019-05-17T00:52:27.324Z,21.80
2019-05-17T00:54:57.058Z,22.33
2019-05-17T00:57:27.475Z,22.80
2019-05-17T00:59:57.494Z,21.63
2019-05-17T01:02:27.567Z,21.53
2019-05-17T01:05:00.405Z,22.33
2019-05-17T01:07:30.107Z,22.57
2019-05-17T01:09:59.811Z,20.80
2019-05-17T01:12:29.998Z,21.97
2019-05-17T01:14:59.803Z,21.70
2019-05-17T01:17:29.846Z,21.60
2019-05-17T01:19:59.620Z,20.83
2019-05-17T01:22:29.219Z,21.90
2019-05-17T01:24:59.158Z,20.57
2019-05-17T01:27:28.844Z,21.67
2019-05-17T01:29:58.818Z,20.63
2019-05-17T01:32:28.614Z,19.67
2019-05-17T01:34:58.264Z,20.20
2019-05-17T01:37:28.402Z,19.40
2019-05-17T01:39:59.742Z,20.30
2019-05-17T01:42:29.511Z,21.20
2019-05-17T01:44:59.558Z,19.70
2019-05-17T01:47:29.282Z,19.80
2019-05-17T01:49:59.062Z,20.97
2019-05-17T01:52:28.610Z,19.83
2019-05-17T01:54:58.422Z,20.37
2019-05-17T01:57:29.877Z,20.23
2019-05-17T02:00:00.034Z,20.60
2019-05-17T02:02:40.073Z,20.97
2019-05-17T02:05:11.860Z,21.47
2019-05-17T02:07:41.515Z,19.93
2019-05-17T02:10:11.817Z,20.87
2019-05-17T02:12:57.005Z,19.87
2019-05-17T02:15:28.288Z,21.53
2019-05-17T02:17:57.942Z,20.70
2019-05-17T02:20:28.117Z,20.87
2019-05-17T02:22:58.295Z,21.23
2019-05-17T02:25:28.659Z,21.00
2019-05-17T02:27:58.690Z,19.73
2019-05-17T02:30:28.394Z,19.50
2019-05-17T02:33:03.395Z,20.30
2019-05-17T02:35:33.633Z,19.83
2019-05-17T02:38:03.102Z,19.27
2019-05-17T02:40:34.615Z,19.57
2019-05-17T02:43:04.418Z,19.33
2019-05-17T02:45:34.087Z,19.17
2019-05-17T02:48:04.370Z,20.57
2019-05-17T02:50:34.296Z,19.87
2019-05-17T02:53:05.612Z,18.80
2019-05-17T02:55:36.927Z,20.80
2019-05-17T02:58:06.607Z,20.67
2019-05-17T03:00:36.665Z,18.40
2019-05-17T03:03:06.412Z,19.37
2019-05-17T03:05:37.496Z,19.50
2019-05-17T03:08:07.195Z,20.83
2019-05-17T03:10:38.017Z,19.77
2019-05-17T03:13:08.269Z,20.50
2019-05-17T03:15:38.978Z,19.80
2019-05-17T03:18:08.691Z,20.10
2019-05-17T03:20:38.873Z,20.80
2019-05-17T03:23:12.436Z,20.53
2019-05-17T03:25:44.092Z,20.93
2019-05-17T03:28:13.613Z,20.87
2019-05-17T03:30:46.797Z,19.37
2019-05-17T03:33:16.639Z,21.23
2019-05-17T03:35:47.384Z,20.53
2019-05-17T03:38:17.080Z,21.10
2019-05-17T03:41:06.691Z,20.67
2019-05-17T03:43:18.460Z,19.83
2019-05-17T03:45:48.477Z,20.27
2019-05-17T03:48:18.337Z,20.23
2019-05-17T03:50:48.107Z,21.00
2019-05-17T03:53:18.012Z,21.40
2019-05-17T03:55:48.350Z,20.27
2019-05-17T03:58:23.416Z,20.67
2019-05-17T04:00:53.457Z,19.57
2019-05-17T04:03:23.589Z,18.90
2019-05-17T04:05:54.067Z,20.40
2019-05-17T04:08:23.897Z,19.50
2019-05-17T04:10:53.588Z,20.33
2019-05-17T04:13:23.723Z,19.73
2019-05-17T04:15:53.665Z,19.27
2019-05-17T04:18:23.775Z,19.83
2019-05-17T04:20:53.856Z,18.73
2019-05-17T04:23:23.587Z,17.57
2019-05-17T04:25:53.493Z,17.67
2019-05-17T04:28:23.405Z,17.77
2019-05-17T04:30:53.196Z,19.07
2019-05-17T04:33:23.613Z,18.50
2019-05-17T04:35:54.206Z,17.73
2019-05-17T04:38:24.237Z,18.80
2019-05-17T04:40:54.182Z,17.77
2019-05-17T04:43:23.985Z,16.13
2019-05-17T04:45:53.951Z,16.47
2019-05-17T04:48:23.626Z,16.57
2019-05-17T04:50:53.911Z,15.17
2019-05-17T04:53:23.820Z,15.00
2019-05-17T04:55:54.214Z,14.53
2019-05-17T04:58:24.238Z,14.47
2019-05-17T05:00:54.094Z,14.17
2019-05-17T05:03:23.651Z,13.87
2019-05-17T05:05:53.840Z,13.83
2019-05-17T05:08:23.619Z,13.03
2019-05-17T05:10:55.888Z,13.53
2019-05-17T05:13:25.519Z,12.87
2019-05-17T05:15:55.393Z,13.10
2019-05-17T05:18:25.657Z,12.13
2019-05-17T05:20:55.466Z,13.37
2019-05-17T05:23:25.092Z,13.07
2019-05-17T05:25:54.963Z,13.63
2019-05-17T05:28:25.454Z,13.37
2019-05-17T05:30:55.351Z,14.30
2019-05-17T05:33:24.926Z,13.67
2019-05-17T05:35:54.810Z,13.90
2019-05-17T05:38:24.441Z,13.47
2019-05-17T05:40:54.267Z,14.90
2019-05-17T05:43:23.935Z,15.13
2019-05-17T05:45:53.895Z,14.60
2019-05-17T05:48:23.912Z,14.93
2019-05-17T05:50:53.626Z,16.03
2019-05-17T05:53:23.861Z,16.17
2019-05-17T05:55:53.664Z,15.97
2019-05-17T05:58:24.948Z,16.53
2019-05-17T06:00:54.710Z,15.33
2019-05-17T06:03:24.396Z,16.30
2019-05-17T06:05:56.140Z,15.73
2019-05-17T06:08:27.325Z,15.90
2019-05-17T06:10:57.136Z,16.50
2019-05-17T06:13:26.873Z,15.23
2019-05-17T06:15:56.574Z,15.83
2019-05-17T06:18:28.131Z,15.50
2019-05-17T06:20:57.752Z,14.77
2019-05-17T06:23:27.443Z,13.43
2019-05-17T06:25:57.245Z,13.33
2019-05-17T06:28:27.406Z,13.73
2019-05-17T06:30:57.202Z,14.30
2019-05-17T06:33:30.893Z,13.17
2019-05-17T06:35:58.787Z,11.27
2019-05-17T06:38:29.043Z,11.50
2019-05-17T06:40:58.892Z,10.33
2019-05-17T06:43:28.465Z,11.17
2019-05-17T06:45:58.349Z,10.63
2019-05-17T06:48:27.898Z,10.40
2019-05-17T06:50:57.760Z,10.20
2019-05-17T06:53:27.629Z,10.20
2019-05-17T06:55:58.683Z,10.67
2019-05-17T06:58:28.848Z,11.43
2019-05-17T07:00:59.982Z,10.63
2019-05-17T07:03:29.823Z,11.23
2019-05-17T07:06:10.956Z,10.47
2019-05-17T07:08:41.003Z,10.30
2019-05-17T07:11:12.361Z,10.40
2019-05-17T07:13:42.097Z,10.77
2019-05-17T07:16:11.846Z,10.33
2019-05-17T07:18:41.678Z,10.83
2019-05-17T07:21:11.445Z,10.73
2019-05-17T07:23:41.564Z,10.20
2019-05-17T07:26:11.975Z,11.50
2019-05-17T07:28:41.974Z,12.30
2019-05-17T07:31:12.071Z,10.77
2019-05-17T07:33:42.647Z,10.73
2019-05-17T07:36:12.500Z,11.50
2019-05-17T07:38:42.220Z,11.53
2019-05-17T07:41:12.487Z,10.40
2019-05-17T07:43:43.701Z,11.13
2019-05-17T07:46:13.930Z,10.53
2019-05-17T07:48:43.627Z,10.63
2019-05-17T07:51:13.754Z,11.23
2019-05-17T07:53:43.537Z,11.13
2019-05-17T07:56:16.132Z,11.23
2019-05-17T07:58:45.757Z,11.67
2019-05-17T08:01:15.468Z,11.60
2019-05-17T08:03:45.221Z,11.73
2019-05-17T08:06:14.992Z,12.53
2019-05-17T08:08:44.995Z,13.47
2019-05-17T08:11:14.737Z,13.57
2019-05-17T08:13:44.357Z,12.43
2019-05-17T08:16:14.162Z,12.73
2019-05-17T08:18:45.415Z,12.23
2019-05-17T08:21:27.736Z,12.60
2019-05-17T08:24:00.139Z,12.03
2019-05-17T08:26:31.688Z,12.67
2019-05-17T08:29:03.748Z,13.33
2019-05-17T08:31:34.863Z,12.77
2019-05-17T08:34:06.053Z,12.60
2019-05-17T08:36:35.682Z,12.70
2019-05-17T08:39:06.834Z,12.77
2019-05-17T08:41:36.576Z,12.23
2019-05-17T08:44:06.245Z,11.43
2019-05-17T08:46:35.951Z,11.20
2019-05-17T08:49:09.735Z,11.07
2019-05-17T08:51:42.192Z,11.20
2019-05-17T08:54:12.535Z,11.30
2019-05-17T08:56:42.926Z,11.60
2019-05-17T08:59:15.267Z,11.67
2019-05-17T09:01:45.507Z,11.33
2019-05-17T09:04:16.823Z,12.40
2019-05-17T09:06:46.470Z,12.27
2019-05-17T09:09:16.811Z,11.33
2019-05-17T09:11:47.232Z,12.50
2019-05-17T09:14:17.522Z,11.03
2019-05-17T09:16:50.456Z,12.30
2019-05-17T09:19:20.692Z,12.60
2019-05-17T09:21:51.932Z,11.70
2019-05-17T09:24:21.790Z,13.67
2019-05-17T09:26:53.201Z,12.77
2019-05-17T09:29:23.532Z,12.10
2019-05-17T09:31:53.616Z,13.10
2019-05-17T09:34:24.946Z,12.60
2019-05-17T09:36:55.172Z,12.47
2019-05-17T09:39:26.460Z,12.20
2019-05-17T09:41:56.142Z,11.77
2019-05-17T09:44:25.900Z,12.50
2019-05-17T09:46:55.719Z,11.90
2019-05-17T09:49:25.708Z,12.47
2019-05-17T09:51:56.886Z,11.30
2019-05-17T09:54:41.128Z,11.60
2019-05-17T09:57:03.054Z,10.30
2019-05-17T09:59:33.606Z,11.00
2019-05-17T10:02:03.537Z,12.50
2019-05-17T10:04:34.594Z,12.33
2019-05-17T10:07:05.081Z,11.23
2019-05-17T10:09:34.909Z,11.70
2019-05-17T10:12:06.203Z,12.47
2019-05-17T10:14:35.873Z,12.10
2019-05-17T10:17:06.407Z,11.00
2019-05-17T10:19:36.160Z,11.87
2019-05-17T10:22:05.988Z,11.93
2019-05-17T10:24:38.805Z,11.90
2019-05-17T10:27:07.401Z,11.90
2019-05-17T10:29:39.356Z,11.27
2019-05-17T10:32:10.590Z,11.37
2019-05-17T10:34:40.876Z,11.53
2019-05-17T10:37:20.296Z,11.53
2019-05-17T10:39:51.381Z,10.33
2019-05-17T10:42:21.634Z,10.90
2019-05-17T10:44:54.520Z,10.57
2019-05-17T10:47:22.930Z,10.40
2019-05-17T10:49:54.111Z,10.33
2019-05-17T10:52:23.945Z,11.47
2019-05-17T10:54:53.599Z,10.73
2019-05-17T10:57:24.983Z,9.80
2019-05-17T10:59:55.043Z,9.13
2019-05-17T11:02:30.183Z,9.47
2019-05-17T11:05:00.638Z,9.30
2019-05-17T11:07:32.361Z,9.87
2019-05-17T11:10:02.676Z,9.77
2019-05-17T11:12:37.368Z,9.80
2019-05-17T11:15:11.509Z,9.17
2019-05-17T11:17:40.936Z,9.83
2019-05-17T11:20:11.874Z,10.43
2019-05-17T11:22:43.289Z,9.97
2019-05-17T11:25:14.914Z,9.60
2019-05-17T11:27:44.642Z,9.50
2019-05-17T11:30:15.073Z,10.10
2019-05-17T11:32:46.003Z,9.43
2019-05-17T11:35:15.776Z,10.10
2019-05-17T11:37:46.955Z,9.50
2019-05-17T11:40:18.326Z,9.27
2019-05-17T11:42:48.105Z,9.43
2019-05-17T11:45:27.284Z,9.50
2019-05-17T11:47:50.308Z,9.77
2019-05-17T11:50:20.988Z,9.27
2019-05-17T11:52:53.436Z,8.87
2019-05-17T11:55:23.505Z,9.60
2019-05-17T11:57:53.931Z,10.63
2019-05-17T12:00:26.522Z,10.13
2019-05-17T12:02:56.198Z,10.13
2019-05-17T12:05:27.493Z,9.87
2019-05-17T12:07:59.059Z,10.43
2019-05-17T12:10:29.182Z,9.77
2019-05-17T12:12:58.905Z,9.97
2019-05-17T12:15:43.604Z,9.77
2019-05-17T12:18:01.866Z,9.40
2019-05-17T12:20:33.027Z,9.13
2019-05-17T12:23:03.563Z,8.83
2019-05-17T12:25:34.001Z,8.90
2019-05-17T12:28:05.125Z,8.57
2019-05-17T12:30:34.859Z,7.53
2019-05-17T12:33:04.627Z,8.47
2019-05-17T12:35:36.228Z,8.23
2019-05-17T12:38:05.903Z,7.53
2019-05-17T12:40:35.704Z,7.77
2019-05-17T12:43:05.729Z,7.90
2019-05-17T12:45:36.317Z,8.30
2019-05-17T12:48:07.479Z,7.93
2019-05-17T12:50:37.519Z,7.90
2019-05-17T12:53:07.216Z,7.77
2019-05-17T12:55:37.030Z,7.77
2019-05-17T12:58:07.345Z,7.90
2019-05-17T13:00:37.784Z,7.87
2019-05-17T13:03:07.659Z,8.87
2019-05-17T13:05:38.046Z,8.57
2019-05-17T13:08:09.389Z,9.50
2019-05-17T13:10:41.289Z,8.50
2019-05-17T13:13:11.018Z,8.40
2019-05-17T13:15:42.404Z,8.20
2019-05-17T13:18:13.371Z,9.80
2019-05-17T13:20:49.378Z,8.80
2019-05-17T13:23:20.536Z,9.20
2019-05-17T13:25:50.347Z,9.03
2019-05-17T13:28:21.886Z,8.70
2019-05-17T13:30:53.164Z,9.90
2019-05-17T13:33:23.495Z,9.20
2019-05-17T13:35:53.155Z,9.57
2019-05-17T13:38:23.564Z,11.10
2019-05-17T13:40:53.292Z,11.10
2019-05-17T13:43:23.382Z,10.20
2019-05-17T13:45:53.328Z,9.90
2019-05-17T13:48:23.183Z,9.80
2019-05-17T13:50:53.874Z,9.87
2019-05-17T13:53:24.568Z,9.83
2019-05-17T13:55:54.669Z,9.60
2019-05-17T13:58:24.786Z,9.53
2019-05-17T14:00:54.781Z,10.07
2019-05-17T14:03:24.791Z,9.30
2019-05-17T14:05:54.935Z,9.50
2019-05-17T14:08:24.803Z,8.67
2019-05-17T14:10:55.269Z,8.30
2019-05-17T14:13:27.108Z,7.93
2019-05-17T14:15:57.113Z,8.97
2019-05-17T14:18:28.795Z,8.47
2019-05-17T14:20:59.171Z,9.00
2019-05-17T14:23:29.444Z,8.70
2019-05-17T14:25:59.583Z,9.50
2019-05-17T14:28:31.131Z,8.87
2019-05-17T14:31:01.079Z,8.47
2019-05-17T14:33:31.009Z,8.83
2019-05-17T14:36:03.842Z,9.13
2019-05-17T14:38:33.768Z,9.50
2019-05-17T14:41:08.168Z,9.17
2019-05-17T14:43:37.400Z,8.90
2019-05-17T14:46:07.148Z,8.80
2019-05-17T14:48:36.976Z,8.43
2019-05-17T14:51:06.653Z,8.77
2019-05-17T14:53:36.445Z,9.47
2019-05-17T14:56:07.185Z,8.43
2019-05-17T14:58:37.277Z,9.90
2019-05-17T15:01:08.014Z,9.57
2019-05-17T15:03:39.247Z,9.70
2019-05-17T15:06:08.958Z,9.13
2019-05-17T15:08:39.003Z,8.93
2019-05-17T15:11:09.309Z,9.30
2019-05-17T15:13:40.372Z,8.83
2019-05-17T15:16:11.562Z,8.47
2019-05-17T15:18:41.313Z,8.90
2019-05-17T15:21:10.933Z,8.93
2019-05-17T15:23:41.480Z,8.63
2019-05-17T15:26:11.394Z,8.30
2019-05-17T15:28:41.208Z,11.47
2019-05-17T15:31:10.931Z,8.67
2019-05-17T15:33:41.072Z,8.90
2019-05-17T15:36:11.003Z,9.33
2019-05-17T15:38:41.100Z,8.47
2019-05-17T15:41:10.749Z,9.67
2019-05-17T15:43:41.952Z,9.03
2019-05-17T15:46:12.692Z,8.83
2019-05-17T15:48:42.402Z,8.50
2019-05-17T15:51:19.306Z,7.90
2019-05-17T15:53:49.172Z,7.53
2019-05-17T15:56:18.946Z,8.37
2019-05-17T15:58:48.905Z,8.07
2019-05-17T16:01:18.909Z,8.40
2019-05-17T16:03:48.812Z,8.10
2019-05-17T16:06:18.493Z,8.33
2019-05-17T16:08:49.663Z,8.67
2019-05-17T16:11:20.373Z,8.67
2019-05-17T16:13:50.126Z,9.23
2019-05-17T16:16:22.652Z,8.43
2019-05-17T16:18:53.114Z,8.13
2019-05-17T16:21:23.110Z,7.00
2019-05-17T16:23:52.902Z,7.63
2019-05-17T16:26:22.553Z,7.40
2019-05-17T16:28:54.227Z,8.00
2019-05-17T16:31:23.873Z,7.00
2019-05-17T16:33:54.967Z,7.30
2019-05-17T16:36:24.660Z,7.13
2019-05-17T16:38:55.007Z,7.57
2019-05-17T16:41:25.085Z,7.00
2019-05-17T16:43:57.450Z,6.60
2019-05-17T16:46:27.992Z,6.50
2019-05-17T16:48:59.152Z,7.23
2019-05-17T16:51:29.005Z,8.80
2019-05-17T16:53:58.979Z,9.03
2019-05-17T16:56:30.319Z,8.87
2019-05-17T16:59:19.460Z,9.50
2019-05-17T17:01:49.172Z,9.57
2019-05-17T17:04:18.917Z,10.30
2019-05-17T17:06:48.610Z,9.20
2019-05-17T17:09:19.743Z,10.03
2019-05-17T17:11:49.482Z,10.73
2019-05-17T17:14:19.267Z,10.53
2019-05-17T17:16:48.980Z,10.83
2019-05-17T17:19:19.126Z,10.70
2019-05-17T17:21:49.763Z,10.07
2019-05-17T17:24:19.765Z,11.23
2019-05-17T17:26:50.994Z,10.60
2019-05-17T17:29:20.833Z,11.90
2019-05-17T17:31:50.651Z,10.37
2019-05-17T17:34:21.127Z,11.20
2019-05-17T17:36:50.815Z,10.87
2019-05-17T17:39:23.162Z,11.50
2019-05-17T17:41:54.778Z,11.67
2019-05-17T17:44:24.437Z,12.13
2019-05-17T17:47:17.911Z,11.63
2019-05-17T17:49:47.746Z,11.50
2019-05-17T17:52:17.436Z,11.50
2019-05-17T17:54:47.254Z,11.33
2019-05-17T17:57:17.814Z,11.50
2019-05-17T17:59:47.693Z,11.10
2019-05-17T18:02:17.921Z,12.17
2019-05-17T18:04:52.193Z,10.53
2019-05-17T18:07:21.975Z,10.80
2019-05-17T18:09:53.146Z,11.83
2019-05-17T18:12:22.920Z,10.83
2019-05-17T18:14:52.625Z,11.40
2019-05-17T18:17:23.123Z,11.83
2019-05-17T18:19:53.014Z,11.97
2019-05-17T18:22:23.205Z,11.67
2019-05-17T18:24:54.394Z,12.47
2019-05-17T18:27:24.273Z,12.10
2019-05-17T18:29:54.161Z,12.23
2019-05-17T18:32:26.063Z,12.67
2019-05-17T18:34:57.739Z,12.60
2019-05-17T18:37:29.028Z,12.60
2019-05-17T18:40:00.420Z,12.47
2019-05-17T18:42:49.481Z,13.10
2019-05-17T18:45:19.453Z,12.13
2019-05-17T18:47:50.716Z,13.63
2019-05-17T18:50:20.786Z,13.17
2019-05-17T18:52:51.521Z,13.40
2019-05-17T18:55:21.754Z,12.73
2019-05-17T18:57:53.949Z,13.83
2019-05-17T19:00:23.865Z,13.90
2019-05-17T19:02:53.767Z,14.27
2019-05-17T19:05:23.414Z,13.37
2019-05-17T19:07:53.623Z,14.87
2019-05-17T19:10:23.830Z,13.03
2019-05-17T19:12:53.677Z,15.77
2019-05-17T19:15:23.737Z,14.30
2019-05-17T19:17:53.658Z,13.73
2019-05-17T19:20:23.816Z,13.83
2019-05-17T19:22:53.707Z,14.40
2019-05-17T19:25:23.677Z,13.40
2019-05-17T19:27:54.117Z,15.17
2019-05-17T19:30:23.935Z,14.53
2019-05-17T19:32:53.577Z,14.47
2019-05-17T19:35:23.703Z,14.47
2019-05-17T19:37:53.509Z,16.20
2019-05-17T19:40:23.296Z,14.53
2019-05-17T19:42:53.316Z,15.67
2019-05-17T19:45:23.377Z,14.77
2019-05-17T19:47:54.708Z,16.03
2019-05-17T19:50:28.171Z,14.73
2019-05-17T19:52:57.909Z,15.23
2019-05-17T19:55:28.317Z,14.87
2019-05-17T19:57:58.078Z,14.73
2019-05-17T20:00:28.220Z,15.30
2019-05-17T20:02:57.796Z,15.73
2019-05-17T20:05:29.026Z,14.90
2019-05-17T20:07:58.793Z,16.17
2019-05-17T20:10:28.588Z,16.00
2019-05-17T20:12:58.697Z,15.37
2019-05-17T20:15:34.383Z,16.23
2019-05-17T20:18:00.157Z,15.93
2019-05-17T20:20:29.991Z,16.63
2019-05-17T20:22:59.921Z,15.90
2019-05-17T20:25:29.702Z,15.93
2019-05-17T20:27:59.387Z,15.57
2019-05-17T20:30:29.207Z,17.33
2019-05-17T20:32:59.307Z,16.57
2019-05-17T20:35:29.098Z,16.60
2019-05-17T20:37:58.844Z,16.87
2019-05-17T20:40:30.034Z,16.83
2019-05-17T20:43:00.024Z,17.17
2019-05-17T20:45:33.150Z,16.87
2019-05-17T20:48:01.496Z,17.60
2019-05-17T20:50:33.315Z,17.60
2019-05-17T20:53:16.552Z,16.90
2019-05-17T20:55:34.631Z,17.07
2019-05-17T20:58:04.620Z,17.80
2019-05-17T21:00:34.360Z,17.90
2019-05-17T21:03:04.105Z,17.93
2019-05-17T21:05:33.795Z,19.30
2019-05-17T21:08:03.634Z,17.70
2019-05-17T21:10:33.853Z,18.27
2019-05-17T21:13:03.565Z,19.20
2019-05-17T21:15:46.763Z,20.40
2019-05-17T21:18:04.672Z,19.07
2019-05-17T21:20:34.451Z,18.30
2019-05-17T21:23:04.115Z,18.03
2019-05-17T21:25:33.852Z,17.37
2019-05-17T21:28:03.620Z,18.53
2019-05-17T21:30:32.376Z,18.80
2019-05-17T21:33:02.080Z,19.67
2019-05-17T21:35:32.788Z,18.90
2019-05-17T21:38:02.472Z,19.27
2019-05-17T21:40:32.156Z,19.40
2019-05-17T21:43:01.771Z,18.73
2019-05-17T21:45:31.616Z,19.03
2019-05-17T21:48:01.287Z,18.20
2019-05-17T21:50:31.099Z,17.70
2019-05-17T21:53:01.363Z,18.47
2019-05-17T21:55:30.910Z,17.83
2019-05-17T21:58:00.678Z,19.13
2019-05-17T22:01:02.106Z,21.63
2019-05-17T22:03:32.725Z,18.10
2019-05-17T22:06:02.472Z,18.17
2019-05-17T22:08:32.309Z,18.50
2019-05-17T22:11:03.178Z,17.83
2019-05-17T22:13:33.354Z,18.73
2019-05-17T22:16:17.119Z,18.03
2019-05-17T22:18:36.080Z,17.83
2019-05-17T22:21:06.165Z,18.67
2019-05-17T22:23:39.345Z,17.67
2019-05-17T22:26:09.283Z,18.70
2019-05-17T22:28:40.509Z,18.67
2019-05-17T22:31:10.239Z,17.63
2019-05-17T22:33:39.889Z,17.00
2019-05-17T22:36:09.677Z,17.00
2019-05-17T22:38:39.383Z,17.27
2019-05-17T22:41:10.534Z,17.30
2019-05-17T22:43:41.717Z,17.10
2019-05-17T22:46:12.407Z,16.90
2019-05-17T22:48:45.964Z,17.43
2019-05-17T22:51:16.259Z,17.67
2019-05-17T22:53:46.128Z,16.83
2019-05-17T22:56:16.564Z,18.30
2019-05-17T22:58:46.247Z,18.03
2019-05-17T23:01:16.001Z,18.03
2019-05-17T23:03:46.594Z,18.67
2019-05-17T23:06:16.916Z,18.73
2019-05-17T23:08:47.026Z,17.57
2019-05-17T23:11:16.694Z,18.07
2019-05-17T23:13:46.498Z,18.13
2019-05-17T23:16:16.689Z,17.57
2019-05-17T23:19:05.124Z,17.30
2019-05-17T23:21:35.324Z,17.87
2019-05-17T23:24:05.753Z,17.27
2019-05-17T23:26:35.490Z,18.07
2019-05-17T23:29:05.707Z,17.80
2019-05-17T23:31:35.513Z,17.50
2019-05-17T23:34:05.234Z,18.10
2019-05-17T23:36:35.210Z,17.67
2019-05-17T23:39:06.634Z,17.27
2019-05-17T23:41:36.345Z,18.03
2019-05-17T23:44:06.392Z,18.33
2019-05-17T23:46:36.142Z,18.27
2019-05-17T23:49:06.218Z,17.73
2019-05-17T23:51:35.942Z,17.83
2019-05-17T23:54:06.007Z,18.43
2019-05-17T23:56:35.936Z,17.37
2019-05-17T23:59:06.099Z,18.47
